Time;durP1;ratioP1;P1;durP2;ratioP2;P2;SDS_P1;SDS_P2;PMS_P1;PMS_P2;Temp;Humidity;BMP_temperature;BMP_pressure;BME280_temperature;BME280_humidity;BME280_pressure;Samples;Min_cycle;Max_cycle;Signal;HPM_P1;HPM_P2
2023/02/06 00:01:56;;;;;;;;;;;;;;;-1.13;100.00;97476.03;10522753;28;3129;-68
2023/02/06 00:06:59;;;;;;;;;;;;;;;-1.00;100.00;97469.50;10523945;28;2405;-68
2023/02/06 00:12:02;;;;;;;;;;;;;;;-0.92;100.00;97461.59;10519068;28;2349;-69
2023/02/06 00:17:04;;;;;;;;;;;;;;;-0.85;100.00;97467.88;10521196;28;3231;-68
2023/02/06 00:22:06;;;;;;;;;;;;;;;-0.78;100.00;97468.06;10525119;28;3140;-75
2023/02/06 00:27:08;;;;;;;;;;;;;;;-0.94;100.00;97484.69;10523378;28;3196;-68
2023/02/06 00:32:11;;;;;;;;;;;;;;;-0.97;100.00;97488.47;10535404;28;3224;-67
2023/02/06 00:37:16;;;;;;;;;;;;;;;-0.84;100.00;97485.38;10527197;28;3141;-67
2023/02/06 00:42:18;;;;;;;;;;;;;;;-0.93;100.00;97481.88;10527859;28;2282;-69
2023/02/06 00:47:21;;;;;;;;;;;;;;;-1.09;100.00;97487.91;10526487;28;2675;-69
2023/02/06 00:52:23;;;;;;;;;;;;;;;-1.21;100.00;97478.66;10533724;28;2738;-73
2023/02/06 00:57:26;;;;;;;;;;;;;;;-1.09;100.00;97471.25;10527555;28;3173;-72
2023/02/06 01:02:28;;;;;;;;;;;;;;;-1.01;100.00;97483.69;10529785;28;2302;-68
2023/02/06 01:07:30;;;;;;;;;;;;;;;-1.21;100.00;97483.94;10529021;28;3214;-69
2023/02/06 01:12:33;;;;;;;;;;;;;;;-1.20;100.00;97490.03;10533096;28;2695;-68
2023/02/06 01:17:35;;;;;;;;;;;;;;;-1.17;100.00;97500.25;10526982;28;3128;-68
2023/02/06 01:22:37;;;;;;;;;;;;;;;-1.18;100.00;97495.97;10534474;28;2357;-68
2023/02/06 01:27:40;;;;;;;;;;;;;;;-1.10;100.00;97496.81;10535607;28;3368;-69
2023/02/06 01:32:42;;;;;;;;;;;;;;;-1.09;100.00;97482.63;10528360;28;2674;-69
2023/02/06 01:37:45;;;;;;;;;;;;;;;-1.15;100.00;97477.97;10525743;28;3164;-68
2023/02/06 01:42:47;;;;;;;;;;;;;;;-1.23;100.00;97479.78;10527021;28;2341;-68
2023/02/06 01:47:50;;;;;;;;;;;;;;;-1.26;100.00;97493.28;10525306;28;3138;-68
2023/02/06 01:52:52;;;;;;;;;;;;;;;-1.24;100.00;97494.78;10527839;28;3140;-69
2023/02/06 01:57:54;;;;;;;;;;;;;;;-1.44;100.00;97491.53;10526161;28;2849;-67
2023/02/06 02:02:57;;;;;;;;;;;;;;;-1.29;100.00;97480.41;10525446;28;2743;-69
2023/02/06 02:08:00;;;;;;;;;;;;;;;-1.27;100.00;97487.19;10524560;28;2779;-67
2023/02/06 02:13:03;;;;;;;;;;;;;;;-1.27;100.00;97470.50;10515541;28;2316;-67
2023/02/06 02:18:05;;;;;;;;;;;;;;;-1.19;100.00;97466.13;10525361;28;3140;-68
2023/02/06 02:23:08;;;;;;;;;;;;;;;-1.15;100.00;97469.25;10523869;28;3220;-68
2023/02/06 02:28:10;;;;;;;;;;;;;;;-1.32;100.00;97486.81;10528989;28;2687;-68
2023/02/06 02:33:12;;;;;;;;;;;;;;;-1.35;100.00;97492.41;10520017;28;2702;-69
2023/02/06 02:38:15;;;;;;;;;;;;;;;-1.44;100.00;97482.81;10527229;28;2329;-68
2023/02/06 02:43:17;;;;;;;;;;;;;;;-1.61;100.00;97460.78;10533236;28;2404;-69
2023/02/06 02:48:19;;;;;;;;;;;;;;;-1.55;100.00;97456.69;10526708;28;3204;-67
2023/02/06 02:53:21;;;;;;;;;;;;;;;-1.64;100.00;97461.94;10532449;28;3219;-68
2023/02/06 02:58:24;;;;;;;;;;;;;;;-1.69;100.00;97460.72;10522941;28;3171;-69
2023/02/06 03:03:27;;;;;;;;;;;;;;;-1.70;100.00;97467.81;10521140;28;3152;-68
2023/02/06 03:08:30;;;;;;;;;;;;;;;-1.48;100.00;97474.38;10523440;28;2727;-67
2023/02/06 03:13:32;;;;;;;;;;;;;;;-1.39;100.00;97472.63;10524829;28;2761;-69
2023/02/06 03:18:34;;;;;;;;;;;;;;;-1.79;100.00;97473.19;10523920;28;3231;-68
2023/02/06 03:23:37;;;;;;;;;;;;;;;-1.76;100.00;97476.34;10523347;28;3225;-75
2023/02/06 03:28:39;;;;;;;;;;;;;;;-1.78;100.00;97478.31;10526066;28;2695;-67
2023/02/06 03:33:41;;;;;;;;;;;;;;;-1.61;100.00;97481.88;10524236;28;2306;-67
2023/02/06 03:38:44;;;;;;;;;;;;;;;-1.51;100.00;97487.06;10519933;28;3629;-68
2023/02/06 03:43:46;;;;;;;;;;;;;;;-1.80;100.00;97493.44;10522864;28;2298;-68
2023/02/06 03:48:48;;;;;;;;;;;;;;;-1.91;100.00;97501.59;10521828;28;2333;-69
2023/02/06 03:53:51;;;;;;;;;;;;;;;-1.95;100.00;97509.00;10523212;28;2859;-68
2023/02/06 03:58:53;;;;;;;;;;;;;;;-2.04;100.00;97522.25;10525835;28;2707;-68
2023/02/06 04:03:55;;;;;;;;;;;;;;;-2.20;100.00;97515.03;10536337;28;3180;-68
2023/02/06 04:08:58;;;;;;;;;;;;;;;-2.45;100.00;97514.78;10536569;28;3253;-69
2023/02/06 04:14:00;;;;;;;;;;;;;;;-2.58;100.00;97518.78;10531786;28;2377;-68
2023/02/06 04:19:02;;;;;;;;;;;;;;;-2.67;100.00;97503.84;10529690;28;2742;-68
2023/02/06 04:24:04;;;;;;;;;;;;;;;-2.88;100.00;97491.78;10528835;28;3133;-68
2023/02/06 04:29:07;;;;;;;;;;;;;;;-2.82;100.00;97490.38;10533631;28;3163;-70
2023/02/06 04:34:09;;;;;;;;;;;;;;;-2.87;100.00;97482.09;10524160;28;2290;-74
2023/02/06 04:39:11;;;;;;;;;;;;;;;-3.02;100.00;97474.69;10532539;28;2746;-75
2023/02/06 04:44:14;;;;;;;;;;;;;;;-2.95;100.00;97463.59;10533244;28;2290;-72
2023/02/06 04:49:16;;;;;;;;;;;;;;;-3.00;100.00;97458.75;10507292;28;3207;-68
2023/02/06 04:54:19;;;;;;;;;;;;;;;-3.01;100.00;97462.38;10532522;28;3155;-68
2023/02/06 04:59:21;;;;;;;;;;;;;;;-3.12;100.00;97473.91;10526618;28;3137;-68
2023/02/06 05:04:23;;;;;;;;;;;;;;;-3.20;100.00;97473.81;10531776;28;2687;-69
2023/02/06 05:09:26;;;;;;;;;;;;;;;-3.21;100.00;97484.50;10528214;28;3160;-67
2023/02/06 05:14:28;;;;;;;;;;;;;;;-3.18;100.00;97476.28;10529020;28;2345;-69
2023/02/06 05:19:30;;;;;;;;;;;;;;;-3.33;100.00;97478.59;10527417;28;3208;-67
2023/02/06 05:24:33;;;;;;;;;;;;;;;-3.39;100.00;97472.09;10527762;28;3127;-68
2023/02/06 05:29:35;;;;;;;;;;;;;;;-3.31;100.00;97464.34;10521540;28;2731;-69
2023/02/06 05:34:38;;;;;;;;;;;;;;;-3.34;100.00;97459.34;10527878;28;3229;-72
2023/02/06 05:39:40;;;;;;;;;;;;;;;-3.36;100.00;97449.97;10530617;28;2344;-70
2023/02/06 05:44:43;;;;;;;;;;;;;;;-3.39;100.00;97456.31;10531774;28;2297;-68
2023/02/06 05:49:47;;;;;;;;;;;;;;;-3.40;100.00;97452.03;10533803;28;3213;-68
2023/02/06 05:54:49;;;;;;;;;;;;;;;-3.44;100.00;97452.47;10526992;28;2683;-68
2023/02/06 05:59:51;;;;;;;;;;;;;;;-3.45;100.00;97453.44;10525201;28;2682;-69
2023/02/06 06:04:54;;;;;;;;;;;;;;;-3.44;100.00;97445.41;10523778;28;2620;-68
2023/02/06 06:09:56;;;;;;;;;;;;;;;-3.63;100.00;97438.44;10529830;28;3302;-69
2023/02/06 06:14:58;;;;;;;;;;;;;;;-3.74;100.00;97445.69;10520905;28;2520;-68
2023/02/06 06:20:01;;;;;;;;;;;;;;;-3.80;100.00;97449.72;10526627;28;2762;-67
2023/02/06 06:25:05;;;;;;;;;;;;;;;-3.51;100.00;97457.47;10519229;28;3195;-68
2023/02/06 06:30:07;;;;;;;;;;;;;;;-3.33;100.00;97462.81;10520690;28;2313;-68
2023/02/06 06:35:10;;;;;;;;;;;;;;;-3.43;100.00;97460.25;10520056;28;3186;-69
2023/02/06 06:40:32;;;;;;;;;;;;;;;-3.52;100.00;97455.84;10518975;28;3196;-69
2023/02/06 06:45:35;;;;;;;;;;;;;;;-3.23;100.00;97455.72;10521401;28;3204;-70
2023/02/06 06:50:37;;;;;;;;;;;;;;;-3.33;100.00;97458.38;10520670;28;2742;-68
2023/02/06 06:55:40;;;;;;;;;;;;;;;-3.29;100.00;97464.19;10524835;28;3153;-70
2023/02/06 07:00:42;;;;;;;;;;;;;;;-3.37;100.00;97448.28;10523640;28;3191;-71
2023/02/06 07:05:44;;;;;;;;;;;;;;;-3.36;100.00;97463.94;10517200;28;2752;-69
2023/02/06 07:10:47;;;;;;;;;;;;;;;-3.46;100.00;97471.03;10525775;28;3163;-69
2023/02/06 07:15:49;;;;;;;;;;;;;;;-3.42;100.00;97471.59;10519898;28;3192;-68
2023/02/06 07:20:51;;;;;;;;;;;;;;;-3.34;100.00;97466.41;10519069;28;2334;-69
2023/02/06 07:25:55;;;;;;;;;;;;;;;-3.33;100.00;97466.28;10521134;28;2397;-70
2023/02/06 07:30:57;;;;;;;;;;;;;;;-3.30;100.00;97473.88;10521280;28;2408;-71
2023/02/06 07:36:00;;;;;;;;;;;;;;;-3.27;100.00;97465.69;10520385;28;2675;-70
2023/02/06 07:41:05;;;;;;;;;;;;;;;-3.17;100.00;97480.63;10514563;28;2779;-70
2023/02/06 07:46:07;;;;;;;;;;;;;;;-3.04;100.00;97470.56;10518295;28;3175;-70
2023/02/06 07:51:10;;;;;;;;;;;;;;;-3.02;100.00;97473.88;10522316;28;2357;-69
2023/02/06 07:56:12;;;;;;;;;;;;;;;-3.08;100.00;97480.53;10521962;28;2702;-71
2023/02/06 08:01:14;;;;;;;;;;;;;;;-3.10;100.00;97474.63;10524677;28;2739;-70
2023/02/06 08:06:17;;;;;;;;;;;;;;;-3.26;100.00;97483.13;10524988;28;2390;-70
2023/02/06 08:11:19;;;;;;;;;;;;;;;-3.19;100.00;97493.06;10532761;28;2640;-70
2023/02/06 08:16:22;;;;;;;;;;;;;;;-3.11;100.00;97496.63;10532674;28;2687;-71
2023/02/06 08:21:25;;;;;;;;;;;;;;;-2.89;100.00;97500.66;10529926;28;2361;-75
2023/02/06 08:26:27;;;;;;;;;;;;;;;-2.70;100.00;97499.72;10527622;28;3090;-72
2023/02/06 08:31:30;;;;;;;;;;;;;;;-2.76;100.00;97495.06;10530381;28;3100;-70
2023/02/06 08:36:32;;;;;;;;;;;;;;;-2.49;100.00;97496.81;10522846;28;3128;-69
2023/02/06 08:41:36;;;;;;;;;;;;;;;-2.54;100.00;97488.56;10526824;28;2375;-71
2023/02/06 08:46:38;;;;;;;;;;;;;;;-2.41;100.00;97496.09;10524301;28;2758;-70
2023/02/06 08:51:41;;;;;;;;;;;;;;;-2.32;100.00;97495.16;10530579;28;2460;-70
2023/02/06 08:56:43;;;;;;;;;;;;;;;-2.38;100.00;97495.75;10529941;28;3080;-70
2023/02/06 09:01:47;;;;;;;;;;;;;;;-2.26;100.00;97487.47;10528999;28;2274;-69
2023/02/06 09:06:50;;;;;;;;;;;;;;;-2.25;100.00;97483.03;10528976;28;2314;-72
2023/02/06 09:11:54;;;;;;;;;;;;;;;-2.11;100.00;97494.84;10522643;28;3140;-70
2023/02/06 09:16:57;;;;;;;;;;;;;;;-2.14;100.00;97485.44;10526537;28;2695;-68
2023/02/06 09:21:59;;;;;;;;;;;;;;;-2.11;100.00;97489.56;10525543;28;2330;-70
2023/02/06 09:27:01;;;;;;;;;;;;;;;-1.83;100.00;97492.94;10527150;28;3207;-71
2023/02/06 09:32:04;;;;;;;;;;;;;;;-1.63;100.00;97497.03;10524832;28;3160;-70
2023/02/06 09:37:06;;;;;;;;;;;;;;;-1.72;100.00;97480.34;10534056;28;2751;-70
2023/02/06 09:42:09;;;;;;;;;;;;;;;-1.74;100.00;97482.28;10528204;28;2384;-69
2023/02/06 09:47:12;;;;;;;;;;;;;;;-1.49;100.00;97490.34;10525514;28;3217;-69
2023/02/06 09:52:14;;;;;;;;;;;;;;;-1.54;100.00;97482.06;10528234;28;3251;-70
2023/02/06 09:57:17;;;;;;;;;;;;;;;-1.36;100.00;97464.38;10525375;28;2804;-70
2023/02/06 10:02:19;;;;;;;;;;;;;;;-1.32;100.00;97459.63;10529557;28;3209;-69
2023/02/06 10:07:21;;;;;;;;;;;;;;;-1.33;100.00;97464.06;10524065;28;2739;-70
2023/02/06 10:12:24;;;;;;;;;;;;;;;-1.17;100.00;97461.50;10528846;28;2675;-70
2023/02/06 10:17:26;;;;;;;;;;;;;;;-0.99;100.00;97456.13;10524542;28;3553;-69
2023/02/06 10:22:29;;;;;;;;;;;;;;;-0.01;100.00;97437.75;10526521;28;2805;-71
2023/02/06 10:27:31;;;;;;;;;;;;;;;0.68;100.00;97435.47;10526093;28;2275;-69
2023/02/06 10:32:33;;;;;;;;;;;;;;;0.49;100.00;97415.53;10524786;28;3253;-69
2023/02/06 10:37:36;;;;;;;;;;;;;;;0.26;100.00;97424.19;10521398;28;2719;-74
2023/02/06 10:42:38;;;;;;;;;;;;;;;0.66;100.00;97403.91;10523606;28;3314;-71
2023/02/06 10:47:40;;;;;;;;;;;;;;;0.78;100.00;97389.28;10522958;28;2780;-69
2023/02/06 10:52:43;;;;;;;;;;;;;;;0.76;100.00;97385.16;10523684;28;3251;-70
2023/02/06 10:57:45;;;;;;;;;;;;;;;0.69;100.00;97389.47;10524478;28;2588;-69
2023/02/06 11:02:54;;;;;;;;;;;;;;;0.62;100.00;97372.63;10521094;28;3244;-69
2023/02/06 11:08:08;;;;;;;;;;;;;;;0.92;100.00;97369.19;10520697;28;2810;-69
2023/02/06 11:13:10;;;;;;;;;;;;;;;0.92;100.00;97352.47;10520864;28;3088;-70
2023/02/06 11:18:12;;;;;;;;;;;;;;;0.63;100.00;97342.53;10523751;28;3224;-69
2023/02/06 11:23:15;;;;;;;;;;;;;;;0.60;100.00;97343.72;10521099;28;2754;-70
2023/02/06 11:28:17;;;;;;;;;;;;;;;1.04;100.00;97337.84;10522708;28;2726;-68
2023/02/06 11:33:20;;;;;;;;;;;;;;;0.60;100.00;97332.31;10521184;28;2750;-70
2023/02/06 11:38:23;;;;;;;;;;;;;;;0.75;100.00;97319.97;10519613;28;3815;-70
2023/02/06 11:43:25;;;;;;;;;;;;;;;0.32;100.00;97324.81;10518877;28;3193;-69
2023/02/06 11:48:27;;;;;;;;;;;;;;;0.08;100.00;97317.78;10524837;28;3199;-71
2023/02/06 11:53:30;;;;;;;;;;;;;;;0.22;100.00;97316.25;10528594;28;3143;-70
2023/02/06 11:58:33;;;;;;;;;;;;;;;0.24;100.00;97301.03;10525923;28;2354;-72
2023/02/06 12:03:35;;;;;;;;;;;;;;;0.34;100.00;97296.38;10528959;28;2786;-73
2023/02/06 12:08:37;;;;;;;;;;;;;;;0.49;100.00;97294.63;10527693;28;3329;-70
2023/02/06 12:13:40;;;;;;;;;;;;;;;0.49;100.00;97285.88;10523706;28;2679;-69
2023/02/06 12:18:43;;;;;;;;;;;;;;;0.13;100.00;97296.97;10524296;28;2834;-71
2023/02/06 12:23:45;;;;;;;;;;;;;;;0.20;100.00;97315.59;10525390;28;2325;-70
2023/02/06 12:28:48;;;;;;;;;;;;;;;-0.09;100.00;97310.88;10539147;28;2761;-69
2023/02/06 12:33:50;;;;;;;;;;;;;;;-0.14;100.00;97300.81;10533861;28;3120;-74
2023/02/06 12:38:56;;;;;;;;;;;;;;;-0.32;100.00;97305.47;10521467;28;3132;-71
2023/02/06 12:43:58;;;;;;;;;;;;;;;-0.42;100.00;97273.13;10512940;28;2698;-70
2023/02/06 12:49:00;;;;;;;;;;;;;;;-0.34;100.00;97254.63;10528001;28;3243;-71
2023/02/06 12:54:03;;;;;;;;;;;;;;;-0.20;100.00;97240.69;10526006;28;2282;-71
2023/02/06 12:59:05;;;;;;;;;;;;;;;-0.43;100.00;97239.78;10532376;28;3112;-68
2023/02/06 13:04:08;;;;;;;;;;;;;;;-0.67;100.00;97246.75;10547112;28;2379;-70
2023/02/06 13:09:10;;;;;;;;;;;;;;;-0.72;100.00;97241.13;10548612;28;2800;-71
2023/02/06 13:14:12;;;;;;;;;;;;;;;-0.61;100.00;97246.09;10534271;28;3235;-70
2023/02/06 13:19:14;;;;;;;;;;;;;;;-0.39;100.00;97249.81;10540498;28;2687;-69
2023/02/06 13:24:17;;;;;;;;;;;;;;;-0.65;100.00;97257.97;10529510;28;2774;-69
2023/02/06 13:29:19;;;;;;;;;;;;;;;-0.96;100.00;97264.91;10531395;28;2283;-70
2023/02/06 13:34:21;;;;;;;;;;;;;;;-1.13;100.00;97270.19;10527038;28;2774;-69
2023/02/06 13:39:24;;;;;;;;;;;;;;;-1.35;100.00;97278.72;10526034;28;2727;-70
2023/02/06 13:44:26;;;;;;;;;;;;;;;-1.52;100.00;97282.34;10525517;28;2302;-68
2023/02/06 13:49:28;;;;;;;;;;;;;;;-1.49;100.00;97280.19;10530862;28;3332;-68
2023/02/06 13:54:30;;;;;;;;;;;;;;;-1.37;100.00;97272.78;10524955;28;2722;-69
2023/02/06 13:59:33;;;;;;;;;;;;;;;-1.29;100.00;97275.44;10524008;28;3131;-68
2023/02/06 14:04:35;;;;;;;;;;;;;;;-1.33;100.00;97273.31;10522755;28;2758;-70
2023/02/06 14:09:43;;;;;;;;;;;;;;;-1.26;100.00;97272.50;10524201;28;2739;-70
2023/02/06 14:14:46;;;;;;;;;;;;;;;-1.17;100.00;97257.47;10523593;28;3081;-67
2023/02/06 14:19:48;;;;;;;;;;;;;;;-1.26;100.00;97251.38;10526252;28;2379;-69
2023/02/06 14:24:50;;;;;;;;;;;;;;;-1.09;100.00;97255.66;10521222;28;2809;-71
2023/02/06 14:29:53;;;;;;;;;;;;;;;-0.81;100.00;97258.00;10521418;28;2774;-69
2023/02/06 14:34:55;;;;;;;;;;;;;;;-0.75;100.00;97252.06;10524709;28;3129;-70
2023/02/06 14:39:57;;;;;;;;;;;;;;;-0.89;100.00;97239.50;10524333;28;2759;-68
2023/02/06 14:45:05;;;;;;;;;;;;;;;-0.93;100.00;97232.91;10527178;28;2714;-71
2023/02/06 14:50:08;;;;;;;;;;;;;;;-1.04;100.00;97233.25;10521777;28;2352;-69
2023/02/06 14:55:10;;;;;;;;;;;;;;;-1.34;100.00;97239.97;10525148;28;3124;-69
2023/02/06 15:00:13;;;;;;;;;;;;;;;-1.07;100.00;97220.41;10523425;28;3502;-68
2023/02/06 15:05:15;;;;;;;;;;;;;;;-1.15;100.00;97216.75;10532734;28;3211;-69
2023/02/06 15:10:17;;;;;;;;;;;;;;;-1.18;100.00;97225.00;10529877;28;3148;-71
2023/02/06 15:15:20;;;;;;;;;;;;;;;-1.11;100.00;97215.44;10527495;28;2422;-70
2023/02/06 15:20:22;;;;;;;;;;;;;;;-1.01;100.00;97225.00;10550035;28;3588;-70
2023/02/06 15:25:25;;;;;;;;;;;;;;;-1.22;100.00;97228.13;10527599;28;3161;-73
2023/02/06 15:30:27;;;;;;;;;;;;;;;-0.95;100.00;97222.53;10526402;28;3259;-74
2023/02/06 15:35:30;;;;;;;;;;;;;;;-0.86;100.00;97224.16;10531240;28;2761;-70
2023/02/06 15:40:32;;;;;;;;;;;;;;;-0.90;100.00;97227.28;10523850;28;3172;-70
2023/02/06 15:45:35;;;;;;;;;;;;;;;-1.11;100.00;97230.44;10527097;28;2386;-72
2023/02/06 15:50:37;;;;;;;;;;;;;;;-1.20;100.00;97215.59;10528467;28;2754;-74
2023/02/06 15:55:40;;;;;;;;;;;;;;;-1.19;100.00;97215.44;10519870;28;3129;-71
2023/02/06 16:00:42;;;;;;;;;;;;;;;-1.24;100.00;97211.63;10524402;28;2714;-70
2023/02/06 16:05:45;;;;;;;;;;;;;;;-1.25;100.00;97221.38;10526472;28;2730;-71
2023/02/06 16:10:47;;;;;;;;;;;;;;;-1.32;100.00;97219.56;10532341;28;2766;-68
2023/02/06 16:15:49;;;;;;;;;;;;;;;-1.35;100.00;97223.31;10535803;28;3268;-70
2023/02/06 16:20:52;;;;;;;;;;;;;;;-1.32;100.00;97228.28;10534301;28;2372;-69
2023/02/06 16:25:54;;;;;;;;;;;;;;;-1.44;100.00;97248.06;10533390;28;2726;-69
2023/02/06 16:30:56;;;;;;;;;;;;;;;-1.30;100.00;97257.97;10526651;28;2747;-67
2023/02/06 16:35:59;;;;;;;;;;;;;;;-1.40;100.00;97265.19;10507762;28;2718;-70
2023/02/06 16:41:01;;;;;;;;;;;;;;;-1.41;100.00;97274.91;10525336;28;3181;-69
2023/02/06 16:46:04;;;;;;;;;;;;;;;-1.41;100.00;97284.66;10524735;28;2808;-72
2023/02/06 16:51:09;;;;;;;;;;;;;;;-1.35;100.00;97291.91;10531400;28;2353;-70
2023/02/06 16:56:11;;;;;;;;;;;;;;;-1.50;100.00;97296.16;10529113;28;3272;-69
2023/02/06 17:01:13;;;;;;;;;;;;;;;-1.55;100.00;97296.66;10525026;28;3140;-69
2023/02/06 17:06:16;;;;;;;;;;;;;;;-1.52;100.00;97312.16;10525471;28;3234;-70
2023/02/06 17:11:18;;;;;;;;;;;;;;;-1.57;100.00;97314.44;10527471;28;2726;-70
2023/02/06 17:16:21;;;;;;;;;;;;;;;-1.55;100.00;97338.03;10533292;28;3132;-75
2023/02/06 17:21:23;;;;;;;;;;;;;;;-1.45;100.00;97338.72;10529447;28;3127;-69
2023/02/06 17:26:26;;;;;;;;;;;;;;;-1.43;100.00;97339.38;10533211;28;2707;-69
2023/02/06 17:31:28;;;;;;;;;;;;;;;-1.51;100.00;97328.81;10527752;28;2758;-70
2023/02/06 17:36:32;;;;;;;;;;;;;;;-1.61;100.00;97325.47;10529029;28;2393;-70
2023/02/06 17:41:35;;;;;;;;;;;;;;;-1.64;100.00;97319.53;10541263;28;3143;-70
2023/02/06 17:46:37;;;;;;;;;;;;;;;-1.67;100.00;97322.47;10527703;28;3212;-69
2023/02/06 17:51:39;;;;;;;;;;;;;;;-1.67;100.00;97326.94;10521309;28;2703;-70
2023/02/06 17:56:42;;;;;;;;;;;;;;;-1.74;100.00;97328.53;10528917;28;2413;-70
2023/02/06 18:01:44;;;;;;;;;;;;;;;-1.71;100.00;97329.06;10528596;28;3530;-69
2023/02/06 18:06:47;;;;;;;;;;;;;;;-1.74;100.00;97318.00;10527841;28;3129;-69
2023/02/06 18:11:50;;;;;;;;;;;;;;;-1.79;100.00;97336.91;10529670;28;3151;-70
2023/02/06 18:16:52;;;;;;;;;;;;;;;-1.82;100.00;97336.44;10528270;28;3298;-70
2023/02/06 18:21:54;;;;;;;;;;;;;;;-1.87;100.00;97334.25;10521495;28;3386;-70
2023/02/06 18:26:57;;;;;;;;;;;;;;;-1.79;100.00;97342.19;10525472;28;2430;-70
2023/02/06 18:31:59;;;;;;;;;;;;;;;-1.96;100.00;97324.66;10522921;28;3275;-70
2023/02/06 18:37:01;;;;;;;;;;;;;;;-1.85;100.00;97308.56;10521226;28;2478;-69
2023/02/06 18:47:24;;;;;;;;;;;;;;;-2.02;100.00;97317.38;10526458;28;2773;-70
2023/02/06 18:52:26;;;;;;;;;;;;;;;-1.99;100.00;97315.25;10524440;28;3355;-69
2023/02/06 18:57:29;;;;;;;;;;;;;;;-2.01;100.00;97313.78;10529330;28;3141;-69
2023/02/06 19:02:31;;;;;;;;;;;;;;;-2.05;100.00;97320.31;10524816;28;2449;-70
2023/02/06 19:07:34;;;;;;;;;;;;;;;-2.15;100.00;97306.47;10523454;28;3291;-70
2023/02/06 19:12:36;;;;;;;;;;;;;;;-2.23;100.00;97307.22;10519515;28;2967;-72
2023/02/06 19:17:38;;;;;;;;;;;;;;;-2.40;100.00;97316.84;10526964;28;2852;-71
2023/02/06 19:22:43;;;;;;;;;;;;;;;-2.52;100.00;97318.06;10519272;28;3256;-70
2023/02/06 19:27:45;;;;;;;;;;;;;;;-2.65;100.00;97331.63;10523355;28;2476;-70
2023/02/06 19:32:50;;;;;;;;;;;;;;;-2.79;100.00;97342.72;10523458;28;3448;-75
2023/02/06 19:37:52;;;;;;;;;;;;;;;-2.87;100.00;97348.72;10526923;28;3188;-76
2023/02/06 19:42:55;;;;;;;;;;;;;;;-2.96;100.00;97352.25;10512426;28;3279;-70
2023/02/06 19:47:57;;;;;;;;;;;;;;;-3.06;100.00;97338.34;10523905;28;3267;-69
2023/02/06 19:52:59;;;;;;;;;;;;;;;-3.15;100.00;97333.97;10522656;28;3352;-69
2023/02/06 19:58:02;;;;;;;;;;;;;;;-3.20;100.00;97330.97;10523386;28;2418;-69
2023/02/06 20:03:04;;;;;;;;;;;;;;;-3.26;100.00;97325.31;10521490;28;3426;-71
2023/02/06 20:08:07;;;;;;;;;;;;;;;-3.33;100.00;97336.59;10520812;28;2927;-71
2023/02/06 20:13:09;;;;;;;;;;;;;;;-3.41;100.00;97350.50;10526446;28;3312;-70
2023/02/06 20:18:12;;;;;;;;;;;;;;;-3.40;100.00;97349.50;10521244;28;2864;-70
2023/02/06 20:23:14;;;;;;;;;;;;;;;-3.44;100.00;97342.88;10519968;28;2888;-69
2023/02/06 20:28:17;;;;;;;;;;;;;;;-3.46;100.00;97334.31;10524244;28;3271;-71
2023/02/06 20:33:19;;;;;;;;;;;;;;;-3.52;100.00;97345.41;10517066;28;3390;-70
2023/02/06 20:38:22;;;;;;;;;;;;;;;-3.56;100.00;97373.81;10519099;28;2884;-70
2023/02/06 20:43:24;;;;;;;;;;;;;;;-3.61;100.00;97362.09;10517809;28;3411;-70
2023/02/06 20:48:27;;;;;;;;;;;;;;;-3.68;100.00;97369.72;10532059;28;2916;-69
2023/02/06 20:53:30;;;;;;;;;;;;;;;-3.79;100.00;97361.19;10525904;28;2872;-70
2023/02/06 20:58:33;;;;;;;;;;;;;;;-3.79;100.00;97369.91;10527994;28;2873;-69
2023/02/06 21:03:55;;;;;;;;;;;;;;;-3.81;100.00;97377.94;10519754;28;3303;-70
2023/02/06 21:09:18;;;;;;;;;;;;;;;-3.81;100.00;97385.00;10523834;28;2888;-71
2023/02/06 21:14:41;;;;;;;;;;;;;;;-3.85;100.00;97384.44;10520770;28;2570;-70
2023/02/06 21:19:44;;;;;;;;;;;;;;;-3.90;100.00;97388.47;10530221;28;2864;-70
2023/02/06 21:24:46;;;;;;;;;;;;;;;-3.92;100.00;97383.38;10520549;28;2410;-71
2023/02/06 21:29:48;;;;;;;;;;;;;;;-4.00;100.00;97379.81;10515929;28;2891;-71
2023/02/06 21:34:51;;;;;;;;;;;;;;;-4.07;100.00;97379.56;10527070;28;2864;-72
2023/02/06 21:39:53;;;;;;;;;;;;;;;-4.14;100.00;97376.66;10528042;28;2449;-70
2023/02/06 21:44:56;;;;;;;;;;;;;;;-4.20;100.00;97376.38;10527715;28;2899;-71
2023/02/06 21:49:58;;;;;;;;;;;;;;;-4.28;100.00;97377.09;10525011;28;2891;-72
2023/02/06 21:55:01;;;;;;;;;;;;;;;-4.33;100.00;97368.00;10522286;28;3335;-70
2023/02/06 22:00:03;;;;;;;;;;;;;;;-4.34;100.00;97372.41;10525598;28;2434;-72
2023/02/06 22:05:06;;;;;;;;;;;;;;;-4.44;100.00;97367.22;10520647;28;2927;-70
2023/02/06 22:10:08;;;;;;;;;;;;;;;-4.46;100.00;97358.63;10526820;28;3334;-71
2023/02/06 22:15:10;;;;;;;;;;;;;;;-4.47;100.00;97338.59;10527773;28;2939;-73
2023/02/06 22:20:13;;;;;;;;;;;;;;;-4.49;100.00;97345.78;10527051;28;2508;-70
2023/02/06 22:25:17;;;;;;;;;;;;;;;-4.48;100.00;97336.13;10524845;28;2868;-72
2023/02/06 22:30:19;;;;;;;;;;;;;;;-4.53;100.00;97339.16;10522376;28;3406;-70
2023/02/06 22:35:22;;;;;;;;;;;;;;;-4.57;100.00;97326.50;10524977;28;2500;-71
2023/02/06 22:40:24;;;;;;;;;;;;;;;-4.60;100.00;97311.84;10524596;28;3435;-70
2023/02/06 22:45:27;;;;;;;;;;;;;;;-4.60;100.00;97311.84;10497178;28;2991;-70
2023/02/06 22:50:29;;;;;;;;;;;;;;;-4.60;100.00;97330.19;10521218;28;3255;-70
2023/02/06 23:00:48;;;;;;;;;;;;;;;-4.66;100.00;97357.00;10520428;28;2568;-70
2023/02/06 23:05:50;;;;;;;;;;;;;;;-4.76;100.00;97369.31;10502515;28;3479;-73
2023/02/06 23:10:53;;;;;;;;;;;;;;;-4.83;100.00;97381.34;10527063;28;3265;-78
2023/02/06 23:15:55;;;;;;;;;;;;;;;-4.92;100.00;97391.66;10525744;28;3368;-70
2023/02/06 23:20:58;;;;;;;;;;;;;;;-5.02;100.00;97385.59;10523998;28;3408;-71
2023/02/06 23:26:00;;;;;;;;;;;;;;;-5.02;100.00;97396.09;10523157;28;2875;-71
2023/02/06 23:31:03;;;;;;;;;;;;;;;-5.05;100.00;97390.28;10521279;28;3013;-72
2023/02/06 23:36:05;;;;;;;;;;;;;;;-5.11;100.00;97410.00;10521568;28;2900;-70
2023/02/06 23:41:07;;;;;;;;;;;;;;;-5.16;100.00;97415.66;10524157;28;2817;-73
2023/02/06 23:46:10;;;;;;;;;;;;;;;-5.19;100.00;97430.84;10523257;28;2398;-70
2023/02/06 23:51:13;;;;;;;;;;;;;;;-5.18;100.00;97429.88;10526263;28;2596;-72
2023/02/06 23:56:16;;;;;;;;;;;;;;;-5.17;100.00;97434.97;10528794;28;2406;-70
